createdAt,value
2024-02-29T00:00:55.471Z,88.70
2024-02-29T00:03:22.327Z,88.70
2024-02-29T00:05:49.181Z,88.60
2024-02-29T00:08:16.952Z,88.40
2024-02-29T00:10:43.801Z,88.30
2024-02-29T00:13:10.838Z,88.30
2024-02-29T00:15:37.780Z,88.30
2024-02-29T00:18:04.757Z,88.10
2024-02-29T00:20:31.684Z,88.10
2024-02-29T00:22:58.475Z,88.10
2024-02-29T00:25:25.272Z,88.10
2024-02-29T00:27:52.069Z,88.10
2024-02-29T00:30:19.006Z,88.10
2024-02-29T00:32:45.848Z,88.00
2024-02-29T00:35:12.673Z,87.80
2024-02-29T00:37:39.480Z,87.80
2024-02-29T00:40:09.154Z,87.80
2024-02-29T00:42:36.261Z,87.70
2024-02-29T00:45:03.256Z,87.70
2024-02-29T00:47:30.141Z,87.80
2024-02-29T00:49:56.991Z,87.90
2024-02-29T00:52:23.818Z,87.80
2024-02-29T00:54:50.815Z,87.80
2024-02-29T00:57:17.833Z,87.90
2024-02-29T00:59:44.638Z,88.00
2024-02-29T01:02:11.517Z,87.90
2024-02-29T01:04:39.012Z,87.90
2024-02-29T01:07:06.003Z,87.90
2024-02-29T01:09:32.882Z,87.90
2024-02-29T01:11:59.751Z,88.00
2024-02-29T01:14:27.481Z,87.90
2024-02-29T01:16:55.209Z,87.90
2024-02-29T01:19:22.258Z,87.90
2024-02-29T01:21:50.108Z,87.90
2024-02-29T01:24:16.859Z,87.90
2024-02-29T01:26:43.864Z,87.80
2024-02-29T01:29:11.206Z,87.80
2024-02-29T01:31:38.063Z,87.70
2024-02-29T01:34:05.944Z,87.70
2024-02-29T01:36:33.050Z,87.60
2024-02-29T01:38:59.888Z,87.70
2024-02-29T01:41:26.689Z,87.70
2024-02-29T01:43:55.078Z,87.60
2024-02-29T01:46:22.162Z,87.60
2024-02-29T01:48:49.682Z,87.60
2024-02-29T01:51:17.935Z,87.70
2024-02-29T01:53:45.219Z,87.70
2024-02-29T01:56:15.945Z,87.70
2024-02-29T01:58:43.197Z,87.70
2024-02-29T02:01:10.359Z,87.70
2024-02-29T02:03:38.577Z,87.70
2024-02-29T02:06:05.608Z,87.80
2024-02-29T02:08:33.554Z,87.80
2024-02-29T02:11:01.326Z,87.80
2024-02-29T02:13:28.316Z,87.80
2024-02-29T02:15:55.308Z,87.70
2024-02-29T02:18:22.276Z,87.70
2024-02-29T02:20:50.638Z,87.70
2024-02-29T02:23:17.427Z,87.60
2024-02-29T02:25:44.396Z,87.60
2024-02-29T02:28:13.090Z,87.70
2024-02-29T02:30:40.525Z,87.80
2024-02-29T02:33:07.567Z,87.80
2024-02-29T02:35:35.155Z,87.80
2024-02-29T02:38:05.282Z,87.80
2024-02-29T02:40:32.129Z,87.90
2024-02-29T02:42:59.385Z,88.00
2024-02-29T02:45:26.358Z,87.90
2024-02-29T02:47:53.204Z,88.10
2024-02-29T02:50:20.068Z,88.30
2024-02-29T02:52:47.087Z,88.50
2024-02-29T02:55:14.299Z,88.60
2024-02-29T02:57:41.203Z,88.70
2024-02-29T03:00:11.553Z,88.90
2024-02-29T03:02:41.640Z,89.20
2024-02-29T03:05:10.226Z,89.60
2024-02-29T03:07:37.399Z,89.70
2024-02-29T03:10:04.997Z,89.90
2024-02-29T03:12:31.854Z,90.10
2024-02-29T03:14:58.645Z,90.70
2024-02-29T03:17:25.530Z,91.10
2024-02-29T03:19:52.820Z,91.50
2024-02-29T03:22:19.924Z,92.10
2024-02-29T03:24:47.183Z,92.00
2024-02-29T03:27:14.118Z,92.30
2024-02-29T03:29:40.986Z,93.10
2024-02-29T03:32:07.818Z,93.40
2024-02-29T03:34:34.741Z,93.50
2024-02-29T03:37:01.616Z,94.00
2024-02-29T03:39:28.600Z,94.40
2024-02-29T03:41:55.461Z,94.30
2024-02-29T03:44:22.286Z,94.60
2024-02-29T03:46:49.079Z,94.60
2024-02-29T03:49:16.107Z,94.90
2024-02-29T03:51:43.011Z,95.30
2024-02-29T03:54:09.876Z,95.80
2024-02-29T03:56:36.723Z,96.10
2024-02-29T03:59:03.478Z,96.20
2024-02-29T04:01:30.383Z,96.40
2024-02-29T04:03:57.266Z,97.00
2024-02-29T04:06:24.186Z,97.00
2024-02-29T04:08:51.010Z,97.30
2024-02-29T04:11:17.832Z,97.50
2024-02-29T04:13:46.069Z,98.00
2024-02-29T04:16:13.175Z,98.20
2024-02-29T04:18:40.603Z,98.40
2024-02-29T04:21:07.484Z,98.60
2024-02-29T04:23:34.693Z,98.80
2024-02-29T04:26:01.541Z,99.10
2024-02-29T04:28:28.354Z,99.20
2024-02-29T04:30:55.191Z,99.50
2024-02-29T04:33:21.998Z,99.70
2024-02-29T04:35:48.825Z,99.80
2024-02-29T04:38:15.689Z,99.90
2024-02-29T04:40:42.470Z,99.90
2024-02-29T04:43:10.184Z,99.90
2024-02-29T04:45:37.076Z,99.90
2024-02-29T04:48:03.981Z,99.90
2024-02-29T04:50:30.860Z,99.90
2024-02-29T04:52:57.607Z,99.90
2024-02-29T04:55:24.429Z,99.90
2024-02-29T04:57:51.354Z,99.90
2024-02-29T05:00:18.354Z,99.90
2024-02-29T05:02:45.135Z,99.90
2024-02-29T05:05:13.567Z,99.90
2024-02-29T05:07:40.696Z,99.90
2024-02-29T05:10:08.970Z,99.90
2024-02-29T05:12:36.020Z,99.90
2024-02-29T05:15:02.938Z,99.90
2024-02-29T05:17:29.755Z,99.90
2024-02-29T05:19:57.682Z,99.90
2024-02-29T05:22:24.483Z,99.90
2024-02-29T05:24:51.394Z,99.90
2024-02-29T05:27:18.301Z,99.90
2024-02-29T05:29:45.080Z,99.90
2024-02-29T05:32:14.582Z,99.90
2024-02-29T05:34:42.621Z,99.90
2024-02-29T05:37:09.505Z,99.90
2024-02-29T05:39:36.420Z,99.90
2024-02-29T05:42:04.027Z,99.90
2024-02-29T05:44:32.073Z,99.90
2024-02-29T05:46:58.897Z,99.90
2024-02-29T05:49:25.863Z,99.90
2024-02-29T05:51:52.779Z,99.90
2024-02-29T05:54:19.716Z,99.90
2024-02-29T05:56:46.502Z,99.90
2024-02-29T05:59:13.785Z,99.90
2024-02-29T06:01:40.929Z,99.90
2024-02-29T06:04:07.870Z,99.90
2024-02-29T06:06:35.664Z,99.90
2024-02-29T06:09:03.603Z,99.90
2024-02-29T06:11:51.694Z,99.90
2024-02-29T06:14:18.672Z,99.90
2024-02-29T06:16:45.431Z,99.90
2024-02-29T06:19:12.406Z,99.90
2024-02-29T06:21:39.239Z,99.90
2024-02-29T06:24:06.194Z,99.90
2024-02-29T06:26:33.057Z,99.90
2024-02-29T06:28:59.808Z,99.90
2024-02-29T06:31:27.281Z,99.90
2024-02-29T06:33:54.513Z,99.90
2024-02-29T06:36:21.528Z,99.90
2024-02-29T06:38:48.739Z,99.90
2024-02-29T06:41:15.659Z,99.90
2024-02-29T06:43:42.584Z,99.90
2024-02-29T06:46:11.572Z,99.90
2024-02-29T06:48:38.598Z,99.90
2024-02-29T06:51:05.601Z,99.90
2024-02-29T06:53:32.641Z,99.90
2024-02-29T06:55:59.393Z,99.90
2024-02-29T06:58:26.674Z,99.90
2024-02-29T07:00:53.641Z,99.90
2024-02-29T07:03:21.192Z,99.90
2024-02-29T07:05:48.080Z,99.90
2024-02-29T07:08:14.954Z,99.90
2024-02-29T07:10:43.814Z,99.90
2024-02-29T07:13:31.942Z,99.90
2024-02-29T07:15:59.508Z,99.90
2024-02-29T07:18:26.572Z,99.90
2024-02-29T07:20:53.354Z,99.90
2024-02-29T07:23:20.469Z,99.90
2024-02-29T07:25:47.281Z,99.90
2024-02-29T07:28:14.238Z,99.90
2024-02-29T07:30:41.227Z,99.90
2024-02-29T07:33:08.217Z,99.90
2024-02-29T07:35:35.720Z,99.90
2024-02-29T07:38:02.512Z,99.90
2024-02-29T07:40:29.534Z,99.90
2024-02-29T07:42:56.408Z,99.90
2024-02-29T07:45:23.184Z,99.90
2024-02-29T07:47:50.420Z,99.90
2024-02-29T07:50:17.460Z,99.90
2024-02-29T07:52:44.252Z,99.90
2024-02-29T07:55:14.659Z,99.90
2024-02-29T07:57:42.563Z,99.90
2024-02-29T08:00:11.502Z,99.90
2024-02-29T08:02:43.366Z,99.90
2024-02-29T08:05:10.897Z,99.90
2024-02-29T08:07:38.495Z,99.90
2024-02-29T08:10:06.236Z,99.90
2024-02-29T08:12:33.071Z,99.90
2024-02-29T08:14:59.958Z,99.90
2024-02-29T08:17:28.397Z,99.90
2024-02-29T08:19:55.429Z,99.90
2024-02-29T08:22:22.233Z,99.90
2024-02-29T08:24:49.217Z,99.90
2024-02-29T08:27:16.067Z,99.90
2024-02-29T08:29:42.998Z,99.90
2024-02-29T08:32:11.559Z,99.90
2024-02-29T08:34:39.946Z,99.90
2024-02-29T08:37:06.993Z,99.90
2024-02-29T08:39:36.037Z,99.90
2024-02-29T08:42:02.900Z,99.90
2024-02-29T08:44:29.760Z,99.90
2024-02-29T08:46:56.936Z,99.90
2024-02-29T08:49:23.921Z,99.90
2024-02-29T08:51:50.870Z,99.90
2024-02-29T08:54:17.800Z,99.90
2024-02-29T08:56:44.633Z,99.90
2024-02-29T08:59:11.418Z,99.90
2024-02-29T09:01:38.929Z,99.90
2024-02-29T09:04:05.865Z,99.90
2024-02-29T09:06:41.103Z,99.90
2024-02-29T09:09:09.096Z,99.90
2024-02-29T09:11:36.389Z,99.90
2024-02-29T09:14:03.389Z,99.90
2024-02-29T09:16:30.452Z,99.90
2024-02-29T09:18:59.796Z,99.90
2024-02-29T09:21:26.969Z,99.90
2024-02-29T09:23:53.999Z,99.90
2024-02-29T09:26:21.003Z,99.90
2024-02-29T09:28:48.985Z,99.90
2024-02-29T09:31:16.007Z,99.90
2024-02-29T09:33:42.986Z,99.90
2024-02-29T09:36:12.326Z,99.90
2024-02-29T09:38:39.435Z,99.90
2024-02-29T09:41:18.446Z,99.90
2024-02-29T09:43:55.152Z,99.90
2024-02-29T09:46:22.632Z,99.90
2024-02-29T09:48:51.284Z,99.90
2024-02-29T09:51:21.777Z,99.90
2024-02-29T09:53:53.996Z,99.90
2024-02-29T09:56:24.146Z,99.90
2024-02-29T09:58:52.686Z,99.90
2024-02-29T10:01:20.090Z,99.90
2024-02-29T10:03:50.402Z,99.90
2024-02-29T10:06:17.469Z,99.90
2024-02-29T10:08:44.290Z,99.90
2024-02-29T10:11:12.360Z,99.90
2024-02-29T10:13:40.313Z,99.90
2024-02-29T10:16:12.441Z,99.90
2024-02-29T10:18:40.051Z,99.90
2024-02-29T10:21:16.014Z,99.90
2024-02-29T10:23:44.377Z,99.90
2024-02-29T10:26:11.384Z,99.90
2024-02-29T10:28:38.264Z,99.90
2024-02-29T10:31:05.581Z,99.90
2024-02-29T10:33:34.423Z,99.90
2024-02-29T10:36:10.938Z,99.90
2024-02-29T10:38:38.521Z,99.90
2024-02-29T10:41:07.872Z,99.90
2024-02-29T10:43:35.493Z,99.90
2024-02-29T10:46:06.681Z,99.90
2024-02-29T10:48:52.017Z,99.90
2024-02-29T10:51:33.960Z,99.90
2024-02-29T10:54:11.833Z,99.90
2024-02-29T10:56:41.340Z,99.90
2024-02-29T10:59:09.905Z,99.90
2024-02-29T11:01:38.641Z,99.90
2024-02-29T11:04:07.242Z,99.90
2024-02-29T11:06:47.513Z,99.90
2024-02-29T11:09:23.098Z,99.90
2024-02-29T11:12:12.446Z,99.90
2024-02-29T11:14:39.434Z,99.90
2024-02-29T11:17:21.113Z,99.90
2024-02-29T11:20:05.055Z,99.90
2024-02-29T11:22:34.344Z,99.90
2024-02-29T11:25:06.196Z,99.90
2024-02-29T11:27:35.554Z,99.90
2024-02-29T11:30:06.101Z,99.90
2024-02-29T11:32:33.694Z,99.90
2024-02-29T11:35:01.017Z,99.90
2024-02-29T11:37:33.774Z,99.90
2024-02-29T11:40:06.399Z,99.90
2024-02-29T11:42:34.049Z,99.90
2024-02-29T11:45:00.993Z,99.90
2024-02-29T11:47:28.549Z,99.90
2024-02-29T11:49:59.950Z,99.90
2024-02-29T11:52:27.347Z,99.90
2024-02-29T11:54:55.232Z,99.90
2024-02-29T11:57:24.788Z,99.90
2024-02-29T11:59:54.816Z,99.90
2024-02-29T12:02:23.197Z,99.90
2024-02-29T12:04:50.295Z,99.90
2024-02-29T12:07:18.023Z,99.90
2024-02-29T12:09:46.605Z,99.90
2024-02-29T12:12:13.923Z,99.90
2024-02-29T12:14:43.263Z,99.90
2024-02-29T12:17:10.277Z,99.90
2024-02-29T12:19:37.111Z,99.90
2024-02-29T12:22:12.560Z,99.90
2024-02-29T12:24:39.706Z,99.90
2024-02-29T12:27:06.728Z,99.90
2024-02-29T12:29:36.408Z,99.90
2024-02-29T12:32:03.852Z,99.90
2024-02-29T12:34:30.686Z,99.90
2024-02-29T12:36:57.852Z,99.90
2024-02-29T12:39:24.682Z,99.90
2024-02-29T12:41:52.139Z,99.90
2024-02-29T12:44:19.194Z,99.90
2024-02-29T12:46:51.602Z,99.90
2024-02-29T12:49:18.357Z,99.90
2024-02-29T12:51:45.514Z,99.90
2024-02-29T12:54:12.424Z,99.90
2024-02-29T12:56:39.473Z,99.90
2024-02-29T12:59:06.499Z,99.90
2024-02-29T13:01:34.460Z,99.90
2024-02-29T13:04:01.357Z,99.90
2024-02-29T13:06:28.357Z,99.90
2024-02-29T13:08:55.187Z,99.90
2024-02-29T13:11:22.054Z,99.90
2024-02-29T13:13:49.048Z,99.90
2024-02-29T13:16:16.129Z,99.90
2024-02-29T13:18:43.059Z,99.90
2024-02-29T13:21:09.933Z,99.90
2024-02-29T13:23:36.673Z,99.90
2024-02-29T13:26:04.044Z,99.90
2024-02-29T13:28:31.095Z,99.90
2024-02-29T13:30:57.927Z,99.90
2024-02-29T13:33:24.853Z,99.90
2024-02-29T13:35:51.695Z,99.90
2024-02-29T13:38:18.504Z,99.90
2024-02-29T13:40:45.415Z,99.90
2024-02-29T13:45:58.628Z,99.90
2024-02-29T13:48:25.590Z,99.90
2024-02-29T13:50:52.391Z,99.90
2024-02-29T13:53:19.206Z,99.90
2024-02-29T13:55:48.308Z,99.90
2024-02-29T13:58:15.503Z,99.90
2024-02-29T14:00:42.495Z,99.90
2024-02-29T14:03:09.454Z,99.90
2024-02-29T14:05:36.330Z,99.90
2024-02-29T14:08:03.230Z,99.90
2024-02-29T14:10:30.154Z,99.90
2024-02-29T14:12:57.070Z,99.90
2024-02-29T14:15:23.928Z,99.90
2024-02-29T14:17:51.743Z,99.90
2024-02-29T14:20:18.714Z,99.90
2024-02-29T14:22:45.524Z,99.90
2024-02-29T14:25:12.539Z,99.90
2024-02-29T14:27:39.555Z,99.90
2024-02-29T14:30:09.995Z,99.90
2024-02-29T14:32:37.836Z,99.90
2024-02-29T14:35:05.394Z,99.90
2024-02-29T14:37:33.768Z,99.90
2024-02-29T14:40:01.405Z,99.90
2024-02-29T14:42:28.514Z,99.90
2024-02-29T14:44:55.491Z,99.90
2024-02-29T14:47:22.558Z,99.90
2024-02-29T14:49:49.397Z,99.90
2024-02-29T14:52:16.491Z,99.90
2024-02-29T14:54:44.195Z,99.90
2024-02-29T14:57:12.712Z,99.90
2024-02-29T14:59:42.162Z,99.90
2024-02-29T15:02:09.189Z,99.90
2024-02-29T15:04:37.264Z,99.90
2024-02-29T15:07:06.716Z,99.90
2024-02-29T15:09:33.652Z,99.90
2024-02-29T15:12:00.465Z,99.90
2024-02-29T15:14:27.321Z,99.90
2024-02-29T15:16:55.196Z,99.90
2024-02-29T15:19:22.864Z,99.90
2024-02-29T15:21:50.442Z,99.90
2024-02-29T15:24:19.919Z,99.90
2024-02-29T15:26:49.603Z,99.90
2024-02-29T15:29:16.565Z,99.90
2024-02-29T15:31:45.446Z,99.90
2024-02-29T15:34:12.871Z,99.90
2024-02-29T15:36:39.864Z,99.90
2024-02-29T15:39:07.537Z,99.90
2024-02-29T15:41:34.479Z,99.90
2024-02-29T15:44:01.344Z,99.90
2024-02-29T15:46:28.403Z,99.90
2024-02-29T15:48:55.440Z,99.90
2024-02-29T15:51:26.089Z,99.90
2024-02-29T15:53:53.019Z,99.90
2024-02-29T15:56:19.980Z,99.90
2024-02-29T15:58:47.088Z,99.90
2024-02-29T16:04:03.929Z,99.90
2024-02-29T16:06:30.923Z,99.90
2024-02-29T16:11:56.461Z,99.90
2024-02-29T16:14:24.388Z,99.90
2024-02-29T16:16:51.387Z,99.90
2024-02-29T16:19:18.370Z,99.90
2024-02-29T16:21:45.229Z,99.90
2024-02-29T16:24:12.117Z,99.90
2024-02-29T16:26:39.226Z,99.90
2024-02-29T16:29:06.159Z,99.90
2024-02-29T16:31:32.921Z,99.90
2024-02-29T16:33:59.782Z,99.90
2024-02-29T16:36:26.678Z,99.90
2024-02-29T16:38:53.717Z,99.90
2024-02-29T16:41:20.741Z,99.90
2024-02-29T16:43:48.298Z,99.90
2024-02-29T16:46:15.987Z,99.90
2024-02-29T16:48:42.950Z,99.90
2024-02-29T16:51:09.902Z,99.90
2024-02-29T16:53:36.725Z,99.90
2024-02-29T16:56:06.310Z,99.90
2024-02-29T16:58:33.346Z,99.90
2024-02-29T17:01:00.496Z,99.90
2024-02-29T17:03:27.542Z,99.90
2024-02-29T17:05:54.327Z,99.90
2024-02-29T17:08:21.203Z,99.90
2024-02-29T17:10:47.967Z,99.90
2024-02-29T17:13:16.985Z,99.90
2024-02-29T17:15:43.901Z,99.90
2024-02-29T17:18:10.822Z,99.90
2024-02-29T17:20:38.125Z,99.90
2024-02-29T17:23:06.102Z,99.90
2024-02-29T17:25:33.346Z,99.90
2024-02-29T17:28:00.274Z,99.90
2024-02-29T17:30:27.135Z,99.90
2024-02-29T17:32:54.810Z,99.90
2024-02-29T17:35:22.090Z,99.90
2024-02-29T17:37:49.633Z,99.90
2024-02-29T17:40:16.643Z,99.90
2024-02-29T17:42:43.519Z,99.90
2024-02-29T17:45:13.348Z,99.90
2024-02-29T17:47:43.099Z,99.90
2024-02-29T17:50:17.184Z,99.90
2024-02-29T17:52:44.970Z,99.90
2024-02-29T17:55:19.139Z,99.90
2024-02-29T17:57:49.106Z,99.90
2024-02-29T18:00:16.514Z,99.90
2024-02-29T18:02:43.909Z,99.90
2024-02-29T18:05:11.342Z,99.90
2024-02-29T18:07:46.940Z,99.90
2024-02-29T18:10:18.669Z,99.90
2024-02-29T18:12:45.640Z,99.90
2024-02-29T18:15:12.789Z,99.90
2024-02-29T18:17:39.887Z,99.90
2024-02-29T18:20:08.722Z,99.90
2024-02-29T18:22:35.897Z,99.90
2024-02-29T18:25:03.112Z,99.90
2024-02-29T18:27:30.117Z,99.90
2024-02-29T18:29:57.836Z,99.90
2024-02-29T18:32:25.276Z,99.90
2024-02-29T18:34:52.100Z,99.90
2024-02-29T18:37:18.972Z,99.90
2024-02-29T18:39:46.188Z,99.90
2024-02-29T18:42:13.199Z,99.90
2024-02-29T18:44:40.772Z,99.90
2024-02-29T18:47:07.677Z,99.90
2024-02-29T18:49:34.695Z,99.90
2024-02-29T18:52:01.608Z,99.90
2024-02-29T18:54:28.490Z,99.90
2024-02-29T18:56:55.667Z,99.90
2024-02-29T18:59:22.514Z,99.90
2024-02-29T19:01:51.322Z,99.90
2024-02-29T19:04:18.453Z,99.90
2024-02-29T19:06:46.757Z,99.90
2024-02-29T19:09:13.699Z,99.90
2024-02-29T19:11:43.690Z,99.90
2024-02-29T19:14:12.339Z,99.90
2024-02-29T19:16:43.342Z,99.90
2024-02-29T19:19:11.740Z,99.90
2024-02-29T19:21:38.761Z,99.90
2024-02-29T19:24:11.089Z,99.90
2024-02-29T19:26:38.826Z,99.90
2024-02-29T19:29:06.693Z,99.90
2024-02-29T19:31:34.386Z,99.90
2024-02-29T19:34:01.358Z,99.90
2024-02-29T19:36:28.312Z,99.90
2024-02-29T19:38:56.423Z,99.90
2024-02-29T19:41:23.271Z,99.90
2024-02-29T19:43:50.540Z,99.90
2024-02-29T19:46:17.495Z,99.90
2024-02-29T19:48:44.894Z,99.90
2024-02-29T19:51:11.724Z,99.90
2024-02-29T19:53:38.750Z,99.90
2024-02-29T19:56:06.283Z,99.90
2024-02-29T19:58:33.193Z,99.90
2024-02-29T20:01:02.012Z,99.90
2024-02-29T20:03:35.145Z,99.90
2024-02-29T20:06:02.129Z,99.90
2024-02-29T20:08:29.047Z,99.90
2024-02-29T20:10:57.046Z,99.90
2024-02-29T20:13:25.757Z,99.90
2024-02-29T20:15:52.853Z,99.90
2024-02-29T20:18:20.428Z,99.90
2024-02-29T20:20:47.263Z,99.90
2024-02-29T20:23:14.770Z,99.90
2024-02-29T20:25:41.912Z,99.90
2024-02-29T20:28:08.987Z,99.90
2024-02-29T20:30:35.986Z,99.90
2024-02-29T20:33:02.912Z,99.90
2024-02-29T20:35:29.772Z,99.90
2024-02-29T20:37:57.235Z,99.90
2024-02-29T20:40:25.260Z,99.90
2024-02-29T20:42:52.197Z,99.90
2024-02-29T20:45:19.412Z,99.90
2024-02-29T20:47:46.501Z,99.90
2024-02-29T20:50:16.534Z,99.90
2024-02-29T20:52:43.786Z,99.90
2024-02-29T20:55:10.975Z,99.90
2024-02-29T20:57:38.092Z,99.90
2024-02-29T21:00:06.170Z,99.90
2024-02-29T21:02:32.981Z,99.90
2024-02-29T21:05:05.198Z,99.90
2024-02-29T21:07:35.439Z,99.90
2024-02-29T21:10:02.576Z,99.90
2024-02-29T21:12:29.439Z,99.90
2024-02-29T21:14:56.285Z,99.90
2024-02-29T21:17:23.079Z,99.90
2024-02-29T21:19:49.977Z,99.90
2024-02-29T21:22:16.993Z,99.90
2024-02-29T21:24:43.816Z,99.90
2024-02-29T21:27:10.709Z,99.90
2024-02-29T21:29:40.445Z,99.90
2024-02-29T21:32:08.875Z,99.90
2024-02-29T21:34:37.975Z,99.90
2024-02-29T21:37:05.079Z,99.90
2024-02-29T21:39:36.701Z,99.90
2024-02-29T21:42:10.838Z,99.90
2024-02-29T21:44:37.869Z,99.90
2024-02-29T21:47:04.748Z,99.90
2024-02-29T21:49:31.587Z,99.90
2024-02-29T21:51:58.515Z,99.90
2024-02-29T21:54:25.389Z,99.90
2024-02-29T21:56:53.402Z,99.90
2024-02-29T21:59:20.300Z,99.90
2024-02-29T22:01:47.829Z,99.90
2024-02-29T22:04:15.054Z,99.90
2024-02-29T22:06:45.007Z,99.90
2024-02-29T22:09:12.136Z,99.90
2024-02-29T22:11:38.948Z,99.90
2024-02-29T22:14:06.010Z,99.90
2024-02-29T22:16:33.967Z,99.90
2024-02-29T22:19:01.974Z,99.90
2024-02-29T22:21:29.364Z,99.90
2024-02-29T22:23:56.683Z,99.90
2024-02-29T22:26:26.817Z,99.90
2024-02-29T22:28:53.753Z,99.90
2024-02-29T22:31:20.744Z,99.90
2024-02-29T22:33:47.753Z,99.90
2024-02-29T22:36:15.118Z,99.90
2024-02-29T22:38:41.955Z,99.90
2024-02-29T22:41:08.770Z,99.90
2024-02-29T22:43:36.106Z,99.90
2024-02-29T22:46:03.032Z,99.90
2024-02-29T22:48:29.883Z,99.90
2024-02-29T22:50:56.678Z,99.90
2024-02-29T22:53:23.540Z,99.90
2024-02-29T22:55:51.725Z,99.90
2024-02-29T22:58:20.271Z,99.90
2024-02-29T23:00:53.403Z,99.90
2024-02-29T23:03:24.206Z,99.90
2024-02-29T23:05:51.180Z,99.90
2024-02-29T23:08:18.397Z,99.90
2024-02-29T23:10:45.499Z,99.90
2024-02-29T23:13:13.342Z,99.90
2024-02-29T23:15:40.313Z,99.90
2024-02-29T23:18:07.578Z,99.90
2024-02-29T23:20:34.746Z,99.90
2024-02-29T23:23:02.021Z,99.90
2024-02-29T23:25:30.449Z,99.90
2024-02-29T23:27:57.694Z,99.90
2024-02-29T23:30:24.808Z,99.90
2024-02-29T23:32:51.987Z,99.90
2024-02-29T23:35:19.124Z,99.90
2024-02-29T23:37:46.510Z,99.90
2024-02-29T23:40:15.224Z,99.90
2024-02-29T23:42:42.373Z,99.90
2024-02-29T23:45:09.559Z,99.90
2024-02-29T23:47:36.384Z,99.90
2024-02-29T23:50:03.769Z,99.90
2024-02-29T23:52:30.680Z,99.90
2024-02-29T23:54:57.560Z,99.90
2024-02-29T23:57:24.450Z,99.90
2024-02-29T23:59:51.268Z,99.90
